createdAt,value
2022-08-16T00:02:31.450Z,19.10
2022-08-16T00:05:00.116Z,19.08
2022-08-16T00:07:29.102Z,19.08
2022-08-16T00:09:56.884Z,19.02
2022-08-16T00:12:23.921Z,19.08
2022-08-16T00:14:50.311Z,19.11
2022-08-16T00:17:18.934Z,19.19
2022-08-16T00:19:47.198Z,19.17
2022-08-16T00:22:15.618Z,19.07
2022-08-16T00:24:44.546Z,19.00
2022-08-16T00:27:11.506Z,18.95
2022-08-16T00:29:38.644Z,18.99
2022-08-16T00:32:06.627Z,19.02
2022-08-16T00:34:45.166Z,18.97
2022-08-16T00:37:21.188Z,18.84
2022-08-16T00:39:57.349Z,18.69
2022-08-16T00:42:29.619Z,18.61
2022-08-16T00:45:19.710Z,18.49
2022-08-16T00:47:53.222Z,18.48
2022-08-16T00:50:36.224Z,18.42
2022-08-16T00:53:05.157Z,18.43
2022-08-16T00:55:37.683Z,18.45
2022-08-16T00:58:13.135Z,18.39
2022-08-16T01:00:43.579Z,18.30
2022-08-16T01:03:12.788Z,18.31
2022-08-16T01:05:40.219Z,18.26
2022-08-16T01:08:36.190Z,18.22
2022-08-16T01:10:56.093Z,18.28
2022-08-16T01:13:30.144Z,18.30
2022-08-16T01:16:04.180Z,18.26
2022-08-16T01:18:46.615Z,18.18
2022-08-16T01:21:33.440Z,18.02
2022-08-16T01:24:51.478Z,17.95
2022-08-16T01:27:08.731Z,17.89
2022-08-16T01:29:57.989Z,17.89
2022-08-16T01:32:31.783Z,17.77
2022-08-16T01:35:01.135Z,17.85
2022-08-16T01:37:35.502Z,17.83
2022-08-16T01:40:04.059Z,17.87
2022-08-16T01:42:34.019Z,17.97
2022-08-16T01:45:00.363Z,17.93
2022-08-16T01:47:28.084Z,17.97
2022-08-16T01:50:42.456Z,17.99
2022-08-16T01:52:46.498Z,18.18
2022-08-16T01:55:13.165Z,18.22
2022-08-16T01:57:41.020Z,18.40
2022-08-16T02:00:20.455Z,18.38
2022-08-16T02:02:55.376Z,18.46
2022-08-16T02:05:23.563Z,18.51
2022-08-16T02:07:51.866Z,18.60
2022-08-16T02:10:19.465Z,18.59
2022-08-16T02:12:51.426Z,18.61
2022-08-16T02:15:25.525Z,18.47
2022-08-16T02:17:53.455Z,18.48
2022-08-16T02:20:26.283Z,18.49
2022-08-16T02:22:56.101Z,18.51
2022-08-16T02:25:23.204Z,18.43
2022-08-16T02:27:51.000Z,18.45
2022-08-16T02:30:37.032Z,18.35
2022-08-16T02:33:09.735Z,18.40
2022-08-16T02:35:54.002Z,18.36
2022-08-16T02:38:23.375Z,18.35
2022-08-16T02:40:50.681Z,18.33
2022-08-16T02:43:17.343Z,18.24
2022-08-16T02:45:43.799Z,18.17
2022-08-16T02:48:29.460Z,18.10
2022-08-16T02:51:10.222Z,18.04
2022-08-16T02:53:43.694Z,17.97
2022-08-16T02:56:11.938Z,17.92
2022-08-16T02:58:41.076Z,17.90
2022-08-16T03:01:23.998Z,17.87
2022-08-16T03:04:39.165Z,17.85
2022-08-16T03:06:42.602Z,17.78
2022-08-16T03:09:13.497Z,17.88
2022-08-16T03:11:40.603Z,17.92
2022-08-16T03:14:08.290Z,17.96
2022-08-16T03:16:39.170Z,18.07
2022-08-16T03:19:09.915Z,18.06
2022-08-16T03:21:37.386Z,18.10
2022-08-16T03:24:06.122Z,18.07
2022-08-16T03:26:52.421Z,18.10
2022-08-16T03:29:18.772Z,18.13
2022-08-16T03:31:45.155Z,18.18
2022-08-16T03:34:19.001Z,18.19
2022-08-16T03:36:45.471Z,18.22
2022-08-16T03:39:15.065Z,18.33
2022-08-16T03:41:50.032Z,18.20
2022-08-16T03:44:44.017Z,18.37
2022-08-16T03:47:04.260Z,18.50
2022-08-16T03:49:37.223Z,18.55
2022-08-16T03:52:04.068Z,18.62
2022-08-16T03:54:30.445Z,18.57
2022-08-16T03:56:58.693Z,18.49
2022-08-16T03:59:25.636Z,18.48
2022-08-16T04:01:55.999Z,18.52
2022-08-16T04:04:32.683Z,18.49
2022-08-16T04:07:00.175Z,18.33
2022-08-16T04:09:26.598Z,18.23
2022-08-16T04:11:52.928Z,18.21
2022-08-16T04:14:30.825Z,18.24
2022-08-16T04:16:57.566Z,18.24
2022-08-16T04:19:24.005Z,18.25
2022-08-16T04:21:57.941Z,18.13
2022-08-16T04:24:28.843Z,18.04
2022-08-16T04:26:55.823Z,17.97
2022-08-16T04:29:24.987Z,17.80
2022-08-16T04:31:55.626Z,17.84
2022-08-16T04:34:24.943Z,17.80
2022-08-16T04:36:52.827Z,17.83
2022-08-16T04:39:19.945Z,17.75
2022-08-16T04:41:50.303Z,17.80
2022-08-16T04:44:52.882Z,17.92
2022-08-16T04:47:21.872Z,18.04
2022-08-16T04:49:52.205Z,18.09
2022-08-16T04:52:34.262Z,18.22
2022-08-16T04:55:08.525Z,18.29
2022-08-16T04:57:37.086Z,18.29
2022-08-16T05:00:32.696Z,18.35
2022-08-16T05:02:56.160Z,18.32
2022-08-16T05:05:23.248Z,18.25
2022-08-16T05:07:58.249Z,18.24
2022-08-16T05:10:27.987Z,18.23
2022-08-16T05:12:56.701Z,18.21
2022-08-16T05:15:23.314Z,18.30
2022-08-16T05:17:58.404Z,18.37
2022-08-16T05:20:35.201Z,18.43
2022-08-16T05:23:11.499Z,18.35
2022-08-16T05:25:41.077Z,18.38
2022-08-16T05:28:14.565Z,18.38
2022-08-16T05:30:41.035Z,18.55
2022-08-16T05:33:16.487Z,18.71
2022-08-16T05:35:43.574Z,18.84
2022-08-16T05:38:33.020Z,19.00
2022-08-16T05:41:00.213Z,19.13
2022-08-16T05:43:27.949Z,19.18
2022-08-16T05:45:59.741Z,19.27
2022-08-16T05:48:26.829Z,19.40
2022-08-16T05:50:53.803Z,19.57
2022-08-16T05:53:20.626Z,19.96
2022-08-16T05:55:51.692Z,20.80
2022-08-16T05:58:31.866Z,21.60
2022-08-16T06:00:59.935Z,22.33
2022-08-16T06:03:26.354Z,22.41
2022-08-16T06:05:56.523Z,22.69
2022-08-16T06:08:31.722Z,23.12
2022-08-16T06:11:11.233Z,23.77
2022-08-16T06:13:42.313Z,24.42
2022-08-16T06:16:09.097Z,25.41
2022-08-16T06:18:44.909Z,25.95
2022-08-16T06:21:13.199Z,26.31
2022-08-16T06:23:49.462Z,26.66
2022-08-16T06:26:20.946Z,26.93
2022-08-16T06:28:47.361Z,27.46
2022-08-16T06:31:15.240Z,27.65
2022-08-16T06:33:44.731Z,27.71
2022-08-16T06:36:14.172Z,27.24
2022-08-16T06:38:52.323Z,27.44
2022-08-16T06:41:23.141Z,26.98
2022-08-16T06:43:51.165Z,25.98
2022-08-16T06:46:32.035Z,25.41
2022-08-16T06:48:59.013Z,25.07
2022-08-16T06:51:25.402Z,24.91
2022-08-16T06:54:14.272Z,24.53
2022-08-16T06:56:41.206Z,24.66
2022-08-16T06:59:09.080Z,25.00
2022-08-16T07:01:46.204Z,25.01
2022-08-16T07:04:32.411Z,24.81
2022-08-16T07:07:00.670Z,24.84
2022-08-16T07:09:29.564Z,24.95
2022-08-16T07:12:03.512Z,24.91
2022-08-16T07:14:30.813Z,24.79
2022-08-16T07:16:59.040Z,24.51
2022-08-16T07:19:33.508Z,24.46
2022-08-16T07:22:38.755Z,24.54
2022-08-16T07:25:04.250Z,24.58
2022-08-16T07:27:32.086Z,24.65
2022-08-16T07:30:01.102Z,24.80
2022-08-16T07:32:29.504Z,25.00
2022-08-16T07:34:56.225Z,25.12
2022-08-16T07:37:23.220Z,24.94
2022-08-16T07:39:51.207Z,25.02
2022-08-16T07:42:20.347Z,25.15
2022-08-16T07:44:54.915Z,25.47
2022-08-16T07:47:24.541Z,25.29
2022-08-16T07:49:57.783Z,25.11
2022-08-16T07:52:24.931Z,24.85
2022-08-16T07:54:57.507Z,24.31
2022-08-16T07:57:24.497Z,23.94
2022-08-16T07:59:51.202Z,23.79
2022-08-16T08:02:20.631Z,23.76
2022-08-16T08:04:48.630Z,23.51
2022-08-16T08:07:16.133Z,23.69
2022-08-16T08:09:43.815Z,24.07
2022-08-16T08:12:32.112Z,24.48
2022-08-16T08:14:57.375Z,24.80
2022-08-16T08:17:23.738Z,24.89
2022-08-16T08:19:53.322Z,25.01
2022-08-16T08:22:22.159Z,24.97
2022-08-16T08:24:49.314Z,25.12
2022-08-16T08:27:22.492Z,25.26
2022-08-16T08:30:49.995Z,25.21
2022-08-16T08:32:59.837Z,25.40
2022-08-16T08:35:26.840Z,25.48
2022-08-16T08:37:56.296Z,25.58
2022-08-16T08:40:26.847Z,25.81
2022-08-16T08:42:57.932Z,25.73
2022-08-16T08:48:34.423Z,25.70
2022-08-16T08:51:09.024Z,25.88
2022-08-16T08:53:36.618Z,25.91
2022-08-16T08:56:22.400Z,26.01
2022-08-16T08:58:54.223Z,26.22
2022-08-16T09:01:31.635Z,26.35
2022-08-16T09:04:05.405Z,26.44
2022-08-16T09:06:32.059Z,26.35
2022-08-16T09:09:00.231Z,26.27
2022-08-16T09:11:40.681Z,26.01
2022-08-16T09:14:07.632Z,26.21
2022-08-16T09:17:01.003Z,26.25
2022-08-16T09:19:32.831Z,26.25
2022-08-16T09:22:00.142Z,26.28
2022-08-16T09:24:46.901Z,26.44
2022-08-16T09:27:12.819Z,26.44
2022-08-16T09:29:44.779Z,26.44
2022-08-16T09:32:12.235Z,26.55
2022-08-16T09:34:38.623Z,26.53
2022-08-16T09:37:17.639Z,26.47
2022-08-16T09:39:50.286Z,26.49
2022-08-16T09:42:16.886Z,26.55
2022-08-16T09:45:12.780Z,26.55
2022-08-16T09:47:55.462Z,26.76
2022-08-16T09:50:23.063Z,26.92
2022-08-16T09:52:51.529Z,26.87
2022-08-16T09:55:18.087Z,26.91
2022-08-16T09:57:53.048Z,26.94
2022-08-16T10:00:19.738Z,26.88
2022-08-16T10:03:06.222Z,26.83
2022-08-16T10:05:36.449Z,26.97
2022-08-16T10:08:26.227Z,27.04
2022-08-16T10:10:51.469Z,27.21
2022-08-16T10:13:17.798Z,27.31
2022-08-16T10:15:54.974Z,27.21
2022-08-16T10:19:01.057Z,27.40
2022-08-16T10:21:10.080Z,27.59
2022-08-16T10:23:36.698Z,27.80
2022-08-16T10:27:03.678Z,27.97
2022-08-16T10:28:51.274Z,27.94
2022-08-16T10:31:44.227Z,27.84
2022-08-16T10:34:04.450Z,27.63
2022-08-16T10:36:54.236Z,27.72
2022-08-16T10:39:20.872Z,27.60
2022-08-16T10:41:47.826Z,27.67
2022-08-16T10:44:14.215Z,27.75
2022-08-16T10:46:44.019Z,27.82
2022-08-16T10:49:16.826Z,27.83
2022-08-16T10:52:01.618Z,27.97
2022-08-16T10:54:30.907Z,28.18
2022-08-16T10:56:59.345Z,28.27
2022-08-16T10:59:39.118Z,28.15
2022-08-16T11:02:59.420Z,28.38
2022-08-16T11:05:08.682Z,28.17
2022-08-16T11:07:51.497Z,28.16
2022-08-16T11:19:05.940Z,28.79
2022-08-16T11:21:37.669Z,28.89
2022-08-16T11:24:41.794Z,28.74
2022-08-16T11:27:19.714Z,28.80
2022-08-16T11:29:48.365Z,28.79
2022-08-16T11:32:15.393Z,28.99
2022-08-16T11:35:11.902Z,28.89
2022-08-16T11:38:04.606Z,28.84
2022-08-16T11:40:19.538Z,28.68
2022-08-16T11:42:46.129Z,28.78
2022-08-16T11:45:12.531Z,29.06
2022-08-16T11:47:40.943Z,29.22
2022-08-16T11:50:08.612Z,29.28
2022-08-16T11:52:36.484Z,29.18
2022-08-16T11:55:08.137Z,29.31
2022-08-16T11:57:35.729Z,29.39
2022-08-16T12:00:03.388Z,29.52
2022-08-16T12:02:31.827Z,29.03
2022-08-16T12:04:59.311Z,28.90
2022-08-16T12:07:27.648Z,29.02
2022-08-16T12:09:54.638Z,29.17
2022-08-16T12:12:23.603Z,29.31
2022-08-16T12:14:54.443Z,29.16
2022-08-16T12:17:26.187Z,28.90
2022-08-16T12:19:53.558Z,28.93
2022-08-16T12:22:20.249Z,28.93
2022-08-16T12:24:50.937Z,29.13
2022-08-16T12:27:18.041Z,29.42
2022-08-16T12:29:44.396Z,29.62
2022-08-16T12:32:35.641Z,29.88
2022-08-16T12:34:57.074Z,29.89
2022-08-16T12:37:24.143Z,29.97
2022-08-16T12:39:53.569Z,30.02
2022-08-16T12:42:20.580Z,30.22
2022-08-16T12:44:47.499Z,30.23
2022-08-16T12:47:14.763Z,30.45
2022-08-16T12:49:42.167Z,30.40
2022-08-16T12:52:09.256Z,30.25
2022-08-16T12:54:55.615Z,30.41
2022-08-16T12:57:22.280Z,30.59
2022-08-16T12:59:48.875Z,30.56
2022-08-16T13:02:22.780Z,30.41
2022-08-16T13:04:59.871Z,30.30
2022-08-16T13:07:27.330Z,30.43
2022-08-16T13:09:54.291Z,30.51
2022-08-16T13:12:21.007Z,30.62
2022-08-16T13:14:49.914Z,30.78
2022-08-16T13:17:20.438Z,30.90
2022-08-16T13:20:07.061Z,30.90
2022-08-16T13:22:37.718Z,30.94
2022-08-16T13:25:07.095Z,30.98
2022-08-16T13:28:03.377Z,30.99
2022-08-16T13:30:37.198Z,31.06
2022-08-16T13:33:11.163Z,31.14
2022-08-16T13:35:42.995Z,30.99
2022-08-16T13:38:10.203Z,30.69
2022-08-16T13:40:48.566Z,30.05
2022-08-16T13:43:18.047Z,29.45
2022-08-16T13:45:44.704Z,29.33
2022-08-16T13:48:11.367Z,29.15
2022-08-16T13:50:51.626Z,29.19
2022-08-16T13:53:18.594Z,29.30
2022-08-16T13:55:58.524Z,29.61
2022-08-16T13:58:36.882Z,30.06
2022-08-16T14:01:12.869Z,30.47
2022-08-16T14:03:39.703Z,30.58
2022-08-16T14:06:08.106Z,30.81
2022-08-16T14:08:42.265Z,30.76
2022-08-16T14:11:11.957Z,30.79
2022-08-16T14:13:39.527Z,30.95
2022-08-16T14:16:12.622Z,31.26
2022-08-16T14:18:52.693Z,31.47
2022-08-16T14:21:22.064Z,31.37
2022-08-16T14:23:50.963Z,31.24
2022-08-16T14:26:17.414Z,31.14
2022-08-16T14:28:43.875Z,31.18
2022-08-16T14:31:10.346Z,30.99
2022-08-16T14:33:36.743Z,30.99
2022-08-16T14:36:03.411Z,30.98
2022-08-16T14:38:37.476Z,31.11
2022-08-16T14:41:10.310Z,31.14
2022-08-16T14:43:37.116Z,31.34
2022-08-16T14:46:03.463Z,31.26
2022-08-16T14:48:33.915Z,31.10
2022-08-16T14:51:00.253Z,31.12
2022-08-16T14:53:28.827Z,31.08
2022-08-16T14:55:57.681Z,31.03
2022-08-16T14:58:35.016Z,30.88
2022-08-16T15:01:04.172Z,30.91
2022-08-16T15:03:33.038Z,30.87
2022-08-16T15:06:00.301Z,30.99
2022-08-16T15:08:34.038Z,31.04
2022-08-16T15:11:04.787Z,31.05
2022-08-16T15:13:31.136Z,30.76
2022-08-16T15:16:02.316Z,30.67
2022-08-16T15:18:31.815Z,30.31
2022-08-16T15:21:03.022Z,30.51
2022-08-16T15:23:30.086Z,30.79
2022-08-16T15:26:03.510Z,30.87
2022-08-16T15:28:32.830Z,30.38
2022-08-16T15:31:04.653Z,30.27
2022-08-16T15:33:38.968Z,29.76
2022-08-16T15:36:11.284Z,29.84
2022-08-16T15:38:56.301Z,29.92
2022-08-16T15:41:58.500Z,29.89
2022-08-16T15:44:28.354Z,30.23
2022-08-16T15:46:59.825Z,30.42
2022-08-16T15:49:38.095Z,30.42
2022-08-16T15:52:20.653Z,30.52
2022-08-16T15:54:53.372Z,30.39
2022-08-16T15:57:23.522Z,30.42
2022-08-16T15:59:55.742Z,30.39
2022-08-16T16:02:29.371Z,30.30
2022-08-16T16:05:00.751Z,30.45
2022-08-16T16:07:30.263Z,30.33
2022-08-16T16:09:58.771Z,29.76
2022-08-16T16:15:15.765Z,29.41
2022-08-16T16:17:42.091Z,29.32
2022-08-16T16:20:14.945Z,29.22
2022-08-16T16:22:41.795Z,29.19
2022-08-16T16:25:08.798Z,29.11
2022-08-16T16:27:36.300Z,28.94
2022-08-16T16:30:11.282Z,28.72
2022-08-16T16:32:50.981Z,28.55
2022-08-16T16:35:17.318Z,28.35
2022-08-16T16:37:44.260Z,28.32
2022-08-16T16:40:12.807Z,28.30
2022-08-16T16:42:44.434Z,28.35
2022-08-16T16:45:11.031Z,28.43
2022-08-16T16:47:40.623Z,28.49
2022-08-16T16:50:09.134Z,28.49
2022-08-16T16:52:44.416Z,28.52
2022-08-16T16:55:13.356Z,28.49
2022-08-16T16:57:42.236Z,28.46
2022-08-16T17:00:25.734Z,28.49
2022-08-16T17:02:56.070Z,28.55
2022-08-16T17:05:23.789Z,28.58
2022-08-16T17:07:50.397Z,28.68
2022-08-16T17:10:46.434Z,28.76
2022-08-16T17:13:05.383Z,28.75
2022-08-16T17:15:36.604Z,28.78
2022-08-16T17:18:36.934Z,28.93
2022-08-16T17:20:49.955Z,29.04
2022-08-16T17:23:19.533Z,29.12
2022-08-16T17:25:46.020Z,29.14
2022-08-16T17:28:57.964Z,29.06
2022-08-16T17:31:05.742Z,29.15
2022-08-16T17:33:37.204Z,29.11
2022-08-16T17:36:36.207Z,29.01
2022-08-16T17:39:03.647Z,28.74
2022-08-16T17:41:30.028Z,28.63
2022-08-16T17:43:56.369Z,28.44
2022-08-16T17:46:41.218Z,28.30
2022-08-16T17:49:09.043Z,28.19
2022-08-16T17:51:35.368Z,28.01
2022-08-16T17:54:01.803Z,27.92
2022-08-16T17:56:28.159Z,27.85
2022-08-16T17:58:54.524Z,27.88
2022-08-16T18:01:26.455Z,27.80
2022-08-16T18:04:09.257Z,27.80
2022-08-16T18:06:36.609Z,27.56
2022-08-16T18:09:04.172Z,27.36
2022-08-16T18:11:32.912Z,27.24
2022-08-16T18:13:59.661Z,27.21
2022-08-16T18:16:26.006Z,27.00
2022-08-16T18:18:52.575Z,26.84
2022-08-16T18:21:19.020Z,26.74
2022-08-16T18:23:45.372Z,26.64
2022-08-16T18:26:11.759Z,26.59
2022-08-16T18:28:38.112Z,26.38
2022-08-16T18:31:08.466Z,26.19
2022-08-16T18:33:43.166Z,26.03
2022-08-16T18:36:20.938Z,25.97
2022-08-16T18:38:48.688Z,25.76
2022-08-16T18:41:15.029Z,25.57
2022-08-16T18:44:22.422Z,25.41
2022-08-16T18:46:27.670Z,25.25
2022-08-16T18:48:54.012Z,25.11
2022-08-16T18:51:24.817Z,24.98
2022-08-16T18:53:51.654Z,24.75
2022-08-16T18:56:18.011Z,24.63
2022-08-16T18:58:44.345Z,24.54
2022-08-16T19:01:10.717Z,24.41
2022-08-16T19:03:37.102Z,24.38
2022-08-16T19:06:06.826Z,24.23
2022-08-16T19:08:38.682Z,24.11
2022-08-16T19:11:07.347Z,24.05
2022-08-16T19:13:34.977Z,23.94
2022-08-16T19:16:03.398Z,23.78
2022-08-16T19:18:36.908Z,23.48
2022-08-16T19:21:04.223Z,23.23
2022-08-16T19:23:33.398Z,23.12
2022-08-16T19:26:24.795Z,23.05
2022-08-16T19:28:59.767Z,23.09
2022-08-16T19:31:32.704Z,23.14
2022-08-16T19:34:00.182Z,23.10
2022-08-16T19:36:31.775Z,23.10
2022-08-16T19:39:04.104Z,23.09
2022-08-16T19:41:32.859Z,23.02
2022-08-16T19:43:59.264Z,22.82
2022-08-16T19:46:25.585Z,22.74
2022-08-16T19:48:51.918Z,22.76
2022-08-16T19:51:18.242Z,22.78
2022-08-16T19:53:44.672Z,22.82
2022-08-16T19:56:11.002Z,22.86
2022-08-16T19:58:37.355Z,22.87
2022-08-16T20:01:03.684Z,22.88
2022-08-16T20:03:30.090Z,22.87
2022-08-16T20:05:56.462Z,22.83
2022-08-16T20:08:22.797Z,22.73
2022-08-16T20:10:49.188Z,22.59
2022-08-16T20:13:19.750Z,22.48
2022-08-16T20:15:47.254Z,22.41
2022-08-16T20:18:21.554Z,22.25
2022-08-16T20:20:52.660Z,22.12
2022-08-16T20:23:24.519Z,22.16
2022-08-16T20:25:53.198Z,22.14
2022-08-16T20:28:45.068Z,22.08
2022-08-16T20:31:06.068Z,21.97
2022-08-16T20:33:32.430Z,21.87
2022-08-16T20:35:58.767Z,21.89
2022-08-16T20:38:25.123Z,21.98
2022-08-16T20:40:51.510Z,21.98
2022-08-16T20:43:17.956Z,22.04
2022-08-16T20:45:46.303Z,21.97
2022-08-16T20:48:12.991Z,21.88
2022-08-16T20:50:40.052Z,21.80
2022-08-16T20:53:07.365Z,21.80
2022-08-16T20:55:35.475Z,21.71
2022-08-16T20:58:01.876Z,21.72
2022-08-16T21:00:28.246Z,21.49
2022-08-16T21:02:55.324Z,21.32
2022-08-16T21:05:25.356Z,21.03
2022-08-16T21:07:57.382Z,21.00
2022-08-16T21:10:24.071Z,21.02
2022-08-16T21:12:53.692Z,21.00
2022-08-16T21:15:21.290Z,20.95
2022-08-16T21:17:47.648Z,20.89
2022-08-16T21:20:14.435Z,20.88
2022-08-16T21:22:41.184Z,20.85
2022-08-16T21:25:11.552Z,20.86
2022-08-16T21:28:38.874Z,20.83
2022-08-16T21:30:29.969Z,20.82
2022-08-16T21:33:04.674Z,20.74
2022-08-16T21:35:31.739Z,20.71
2022-08-16T21:38:00.117Z,20.71
2022-08-16T21:40:44.611Z,20.60
2022-08-16T21:43:17.572Z,20.53
2022-08-16T21:45:44.939Z,20.54
2022-08-16T21:48:11.774Z,20.53
2022-08-16T21:50:40.108Z,20.55
2022-08-16T21:53:13.434Z,20.49
2022-08-16T21:55:42.124Z,20.48
2022-08-16T21:58:08.618Z,20.46
2022-08-16T22:00:35.463Z,20.40
2022-08-16T22:03:04.363Z,20.36
2022-08-16T22:05:32.626Z,20.29
2022-08-16T22:08:01.419Z,20.21
2022-08-16T22:11:07.219Z,20.15
2022-08-16T22:13:26.158Z,20.08
2022-08-16T22:15:53.328Z,20.13
2022-08-16T22:18:19.909Z,20.14
2022-08-16T22:20:47.439Z,20.14
2022-08-16T22:23:20.453Z,20.13
2022-08-16T22:25:47.865Z,20.12
2022-08-16T22:28:15.166Z,20.11
2022-08-16T22:30:42.162Z,20.07
2022-08-16T22:33:11.073Z,20.02
2022-08-16T22:35:46.533Z,19.95
2022-08-16T22:38:56.411Z,19.94
2022-08-16T22:41:02.094Z,19.87
2022-08-16T22:43:28.670Z,19.86
2022-08-16T22:45:55.094Z,20.11
2022-08-16T22:48:21.494Z,20.15
2022-08-16T22:50:48.266Z,20.12
2022-08-16T22:53:14.649Z,20.06
2022-08-16T22:55:41.026Z,20.00
2022-08-16T22:58:08.332Z,20.00
2022-08-16T23:00:36.791Z,19.99
2022-08-16T23:03:06.548Z,20.02
2022-08-16T23:05:37.108Z,19.94
2022-08-16T23:08:05.533Z,19.73
2022-08-16T23:10:32.407Z,19.66
2022-08-16T23:13:01.039Z,19.69
2022-08-16T23:15:30.152Z,19.61
2022-08-16T23:17:58.716Z,19.62
2022-08-16T23:20:28.842Z,19.60
2022-08-16T23:23:19.344Z,19.48
2022-08-16T23:25:48.947Z,19.47
2022-08-16T23:28:15.273Z,19.44
2022-08-16T23:30:42.298Z,19.36
2022-08-16T23:33:10.802Z,19.26
2022-08-16T23:35:45.210Z,19.19
2022-08-16T23:38:38.420Z,19.09
2022-08-16T23:41:00.514Z,18.89
2022-08-16T23:43:30.444Z,18.77
2022-08-16T23:46:01.407Z,18.67
2022-08-16T23:48:32.148Z,18.57
2022-08-16T23:51:18.478Z,18.41
2022-08-16T23:53:45.396Z,18.25
2022-08-16T23:56:14.967Z,18.44
2022-08-16T23:58:44.736Z,18.63
